Wyoming, Minnesota
Current Conditions -  °F | °C
As of 1:15 PM on Friday 28 Nov 2014 (Local Time) from KOEO Reporting Station
Overcast Overcast  
Wind Chill:   Ceiling: 2000
Heat Index: 20°   Visibility: 10mi
Dew Point: 14°   Wind: 9mph
Humidity: 78%   Direction: 110°ESE
Pressure: 29.92"   Gusts: NA
Location:  45.34°N, 93°W
Report Text: KOEO 281915Z AUTO 11008KT 10SM OVC020 M07/M10 A2992 RMK AO2 T10691102
Loading
Personal Weather Stations






























Interactive Weather Map New forecast layout! Learn more

10-Day Weather Forecast

Advertisements
Track Severe Weather on mobile